Tiempo atmosférico en la estación meteorológica de Cedrillas, Teruel (1380 m.)



Fecha
DESCASC
Temp. máxima en grados centígrados (hora)
DESCASC
Temp. mínima en grados centígrados (hora)
DESCASC
Temp. media en grados centígrados
DESCASC
Racha de viento máxima en m/sg (hora)
DESCASC
Velocidad máxima media en intervalos de 10 minutos(hora)
DESCASC
Precipitaciones diarias en mm
DESCASC
Precipitaciones de 00:00 a 06:00 en mm
DESCASC
Precipitaciones de 06:00 a 12:00 en mm
DESCASC
Precipitaciones de 12:00 a 18:00 en mm
DESCASC
Precipitaciones de 18:00 a 24:00 en mm
DESCASC
23-05-2018 19.9 (16:00) 8.9 (06:10) 14.4 11.39 (17:20) 7.78 (17:20) 0 0 0 0 0
22-05-2018 16.8 (13:40) 5.1 (06:10) 10.9 10.28 (14:20) 7.5 (14:30) 0.6 0 0 0.4 0.2
21-05-2018 16.6 (13:20) 7.3 (07:30) 12 9.17 (14:00) 6.67 (14:00) 8 0 0 7.6 0.4
20-05-2018 16.8 (15:40) 7.8 (00:00) 12.3 11.11 (17:20) 6.67 (16:20) 0 0 0 0 0
19-05-2018 13.5 (12:20) 3.2 (06:10) 8.4 6.67 (14:40) 5 (15:00) 2 0 0 2 0
18-05-2018 14.3 (12:20) 4.7 (00:00) 9.5 6.11 (13:00) 4.44 (13:00) 8.4 0 0 8.4 0
17-05-2018 17.8 (13:40) 2.5 (00:00) 10.1 11.11 (17:20) 7.78 (17:20) 5.6 0 0 1.8 3.8
16-05-2018 15.9 (16:40) 2.6 (00:00) 9.2 6.67 (13:30) 4.72 (14:00) 0 0 0 0 0
15-05-2018 16.1 (17:30) 1.4 (00:00) 8.8 11.94 (00:10) 8.33 (00:10) 0 0 0 0 0
14-05-2018 12.3 (18:00) 2.6 (00:00) 7.5 13.89 (15:40) 8.89 (23:20) 0 0 0 0 0
13-05-2018 10.2 (17:10) -1.5 (-00:0) 4.3 13.89 (12:50) 8.61 (17:00) 0 0 0 0 0
12-05-2018 18.1 (17:30) 3.1 (00:00) 10.6 11.94 (20:50) 7.78 (10:40) 4.2 0 0 0 4.2
11-05-2018 19.8 (17:00) 7.2 (05:50) 13.5 10 (16:20) 5.83 (15:20) 0 0 0 0 0
10-05-2018 16.4 (19:00) 6 (00:00) 11.2 8.33 (20:20) 6.11 (20:20) 0 0 0 0 0
09-05-2018 19.2 (18:30) 4.7 (00:00) 12 9.72 (14:50) 5.83 (14:30) 0 0 0 0 0
08-05-2018 17 (16:30) 6.5 (00:00) 11.8 10 (15:10) 6.39 (15:20) 7 0 6.8 0.2 0
07-05-2018 15.5 (13:40) 3 (00:00) 9.3 10.28 (14:40) 5.56 (15:00) 11.4 0.2 0 11 0.2
06-05-2018 15.3 (15:10) 2.4 (07:20) 8.9 8.33 (17:50) 5.83 (17:50) 1 0 0 0.8 0.2
05-05-2018 15.5 (13:10) 5.2 (00:00) 10.3 7.78 (16:40) 5.28 (16:00) 0 0 0 0 0
04-05-2018 14.4 (17:00) 1 (00:00) 7.7 9.17 (00:10) 6.11 (11:30) 0 0 0 0 0
03-05-2018 10.8 (14:40) 2.8 (00:00) 6.8 17.5 (02:40) 10.83 (06:30) 0 0 0 0 0
02-05-2018 11.2 (18:20) -2.1 (-00:0) 4.5 13.06 (14:20) 8.33 (20:20) 0 0 0 0 0
01-05-2018 9.4 (18:10) -0.2 (07:50) 4.6 8.33 (16:30) 5.83 (08:30) 0 0 0 0 0
30-04-2018 7.9 (18:00) -1.5 (-00:0) 3.2 10 (20:00) 6.39 (20:00) 2.8 0 0 0 2.8
29-04-2018 9.3 (00:00) 2.1 (00:00) 5.7 21.11 (17:20) 16.11 (17:40) 7.6 4.8 0 2.8 0
28-04-2018 17.2 (15:10) 4.8 (00:00) 11 18.33 (17:10) 12.5 (16:20) 0.4 0 0 0 0.4
27-04-2018 19.8 (14:00) 6.5 (00:00) 13.1 16.67 (15:10) 8.06 (19:30) 7.4 0 0 7.4 0
26-04-2018 21.7 (17:50) 5.5 (00:00) 13.6 7.78 (19:40) 6.11 (19:40) 0 0 0 0 0
25-04-2018 21.3 (14:20) 4.7 (00:00) 13 11.39 (12:50) 6.39 (19:00) 0 0 0 0 0

Gráficas

Temp. máximas Temp. mínimas Temp. medias Precipitaciones Rachas de viento máximas Velocidades máximas media en intervalos de 10 minutos

Datos horarios

Fecha y hora oficial Temperatura (ºC) Velocidad del viento (km/h) Dirección del viento Racha (km/h) Dirección de racha Precipitación (mm) Presión (hPa) Tendencia (hPa) Humedad (%)
2018-05-24 23:00:00 11.7 12 Sur 27 Sudeste 0 -- -- 53
2018-05-24 22:00:00 12.4 17 Sur 36 Sudeste 0 -- -- 58
2018-05-24 21:00:00 13.5 26 Sur 43 Sur 0 -- -- 53
2018-05-24 20:00:00 14.5 25 Sur 38 Sur 0 -- -- 49
2018-05-24 19:00:00 15.5 26 Sur 39 Sur 0 -- -- 50
2018-05-24 18:00:00 16.8 25 Sur 41 Sur 0 -- -- 55
2018-05-24 17:00:00 18.8 22 Sur 38 Sudeste 0 -- -- 47
2018-05-24 16:00:00 19.1 21 Sur 33 Sur 0 -- -- 47
2018-05-24 15:00:00 18.4 21 Sudeste 31 Sudeste 0 -- -- 48
2018-05-24 14:00:00 17 13 Sudeste 32 Sudeste 0 -- -- 49
2018-05-24 13:00:00 17.5 23 Sur 38 Sur 0 -- -- 44
2018-05-24 12:00:00 17.8 19 Sur 40 Sur 0 -- -- 45
2018-05-24 11:00:00 16.7 21 Sur 34 Sur 0 -- -- 51
2018-05-24 10:00:00 15.5 14 Sudeste 35 Sudeste 0 -- -- 52
2018-05-24 09:00:00 14 10 Sudeste 23 Sur 0 -- -- 53
2018-05-24 08:00:00 10 8 Sur 11 Sudeste 0 -- -- 71
2018-05-24 07:00:00 9.2 3 Sudeste 11 Sur 0 -- -- 71
2018-05-24 06:00:00 9.5 9 Sudoeste 13 Sur 0 -- -- 70
2018-05-24 05:00:00 10 8 Sur 16 Sur 0 -- -- 69
2018-05-24 04:00:00 10.4 9 Sur 20 Sur 0 -- -- 68
2018-05-24 03:00:00 10.9 19 Sur 33 Sur 0 -- -- 64
2018-05-24 02:00:00 10.7 15 Sur 22 Sur 0 -- -- 67
2018-05-24 01:00:00 10.3 11 Sur 18 Sur 0 -- -- 83
2018-05-24 00:00:00 10.6 13 Sur 19 Sur 0 -- -- 87
2018-05-23 23:00:00 11.4 9 Sur 32 Sur 0 -- -- 84
2018-05-23 22:00:00 12.4 20 Sur 38 Sur 0 -- -- 83
2018-05-23 21:00:00 14 26 Sur 36 Sudeste 0 -- -- 74
2018-05-23 20:00:00 16.1 23 Sur 38 Sudeste 0 -- -- 67
2018-05-23 19:00:00 16.9 20 Sudeste 41 Sudeste 0 -- -- 63
2018-05-23 18:00:00 17.5 23 Sudeste 41 Sudeste 0 -- -- 65
2018-05-23 17:00:00 18.2 27 Sudeste 40 Sur 0 -- -- 59
2018-05-23 16:00:00 19.9 19 Sur 29 Sudeste 0 -- -- 55
2018-05-23 15:00:00 18.8 16 Sudeste 28 Sur 0 -- -- 55
2018-05-23 14:00:00 17.5 14 Sur 22 Sur 0 -- -- 59
2018-05-23 13:00:00 17.4 13 Sur 24 Sur 0 -- -- 59
2018-05-23 12:00:00 17.5 14 Sur 23 Sur 0 -- -- 62
2018-05-23 11:00:00 16.6 12 Sur 19 Sur 0 -- -- 62
2018-05-23 10:00:00 14.7 9 Sur 13 Sur 0 -- -- 70
2018-05-23 09:00:00 11.7 3 Este 5 Este 0 -- -- 93
2018-05-23 08:00:00 9.5 0 Calma 4 Sudeste 0 -- -- 93
2018-05-23 07:00:00 9 2 Sur 5 Este 0 -- -- 94
2018-05-23 06:00:00 9 3 Nordeste 11 Este 0 -- -- 93
2018-05-23 05:00:00 9.4 0 Calma 12 Este 0 -- -- 93
2018-05-23 04:00:00 9.9 3 Sudeste 5 Sudeste 0 -- -- 92
2018-05-23 03:00:00 10.6 3 Sudeste 6 Sur 0 -- -- 90
2018-05-23 02:00:00 11.2 5 Sur 10 Sudeste 0 -- -- 89
2018-05-23 01:00:00 11.4 4 Sudeste 10 Sudoeste 0 -- -- 87
2018-05-23 00:00:00 11.5 9 Este 13 Este 0 -- -- 85
2018-05-22 23:00:00 12 3 Este 9 Sur 0 -- -- 84
2018-05-22 22:00:00 12.2 8 Sur 13 Sur 0 -- -- 81
2018-05-22 21:00:00 12.7 9 Sur 21 Sur 0 -- -- 77
2018-05-22 20:00:00 14.9 12 Sur 24 Sudoeste 0 -- -- 69
2018-05-22 19:00:00 14.8 17 Sur 27 Sur 0.2 -- -- 71
2018-05-22 18:00:00 14.9 17 Sur 26 Sur 0 -- -- 70
2018-05-22 17:00:00 14.8 9 Sudeste 14 Sudeste 0 -- -- 63
2018-05-22 16:00:00 12.1 6 Noroeste 30 Norte 0.4 -- -- 79
2018-05-22 15:00:00 14.1 21 Norte 37 Oeste 0 -- -- 69
2018-05-22 14:00:00 16.8 4 Noroeste 14 Sudeste 0 -- -- 56
2018-05-22 13:00:00 15.4 6 Norte 17 Norte 0 -- -- 58
2018-05-22 12:00:00 13.9 9 Norte 14 Nordeste 0 -- -- 66
2018-05-22 11:00:00 12.8 8 Norte 17 Nordeste 0 -- -- 71
2018-05-22 10:00:00 13.2 10 Norte 19 Nordeste 0 -- -- 74
2018-05-22 09:00:00 11.5 9 Nordeste 16 Nordeste 0 -- -- 79
2018-05-22 08:00:00 9 5 Nordeste 11 Este 0 -- -- 87
2018-05-22 07:00:00 6.2 5 Este 13 Nordeste 0 -- -- 92
2018-05-22 06:00:00 5.2 7 Este 14 Este 0 -- -- 94
2018-05-22 05:00:00 6.3 7 Este 11 Este 0 -- -- 91
2018-05-22 04:00:00 7.4 4 Este 7 Este 0 -- -- 90
2018-05-22 03:00:00 8 5 Nordeste 13 Este 0 -- -- 90
2018-05-22 02:00:00 8 5 Sudeste 9 Este 0 -- -- 91
2018-05-22 01:00:00 7.9 4 Sudeste 10 Sudeste 0 -- -- 91
2018-05-22 00:00:00 8 8 Sudeste 11 Sudeste 0 -- -- 90
2018-05-21 23:00:00 8.7 4 Nordeste 10 Sudeste 0 -- -- 88
2018-05-21 22:00:00 9.4 9 Sudeste 10 Este 0 -- -- 87
2018-05-21 21:00:00 10.3 8 Norte 25 Noroeste 0.4 -- -- 81
2018-05-21 20:00:00 10.6 18 Noroeste 31 Oeste 0 -- -- 82
2018-05-21 19:00:00 12.9 16 Sur 23 Sur 0 -- -- 71
2018-05-21 18:00:00 13.2 18 Sur 24 Sur 0 -- -- 79
2018-05-21 17:00:00 12.1 7 Sur 18 Sur 0 -- -- 80
2018-05-21 16:00:00 9.7 9 Sur 23 Sudoeste 4.4 -- -- 91
2018-05-21 15:00:00 8.9 22 Sudoeste 30 Sur 3.2 -- -- 79
2018-05-21 14:00:00 13.5 24 Sudeste 33 Sudeste 0 -- -- 61
2018-05-21 13:00:00 15.9 12 Nordeste 19 Nordeste 0 -- -- 53
2018-05-21 12:00:00 15.2 11 Norte 19 Norte 0 -- -- 57
2018-05-21 11:00:00 13.5 6 Oeste 12 Sudoeste 0 -- -- 59
2018-05-21 10:00:00 12.1 5 Sudoeste 12 Noroeste 0 -- -- 67
2018-05-21 09:00:00 11.1 3 Sudeste 10 Sur 0 -- -- 83
2018-05-21 08:00:00 7.8 3 Noroeste 9 Sur 0 -- -- 94
2018-05-21 07:00:00 7.6 0 Calma 6 Sudeste 0 -- -- 94
2018-05-21 06:00:00 8.5 0 Calma 4 Sudoeste 0 -- -- 94
2018-05-21 05:00:00 8.9 3 Sur 9 Sur 0 -- -- 95
2018-05-21 04:00:00 8.9 4 Sudoeste 8 Sudoeste 0 -- -- 95
2018-05-21 03:00:00 9.1 5 Sur 7 Sur 0 -- -- 94
2018-05-21 02:00:00 9.5 5 Sudeste 11 Sur 0 -- -- 92
2018-05-21 01:00:00 9.6 5 Sudeste 10 Sur 0 -- -- 92
2018-05-21 00:00:00 9.5 8 Sudoeste 13 Sur 0 -- -- 91
2018-05-20 23:00:00 9.8 5 Sur 17 Sur 0 -- -- 89
2018-05-20 22:00:00 10.1 8 Sur 23 Sur 0 -- -- 84
2018-05-20 21:00:00 10.5 13 Sur 21 Sur 0 -- -- 80
2018-05-20 20:00:00 11.4 10 Sur 18 Sur 0 -- -- 77
2018-05-20 19:00:00 11.9 4 Sur 30 Sudeste 0 -- -- 73
2018-05-20 18:00:00 12.9 22 Sur 40 Sudeste 0 -- -- 68
2018-05-20 17:00:00 14.3 21 Sur 35 Sur 0 -- -- 59
2018-05-20 16:00:00 16.3 10 Sur 25 Sur 0 -- -- 45
2018-05-20 15:00:00 15.8 12 Sur 24 Sudeste 0 -- -- 52
2018-05-20 14:00:00 14.6 14 Sur 25 Sudeste 0 -- -- 55
2018-05-20 13:00:00 13 13 Este 23 Este 0 -- -- 69
2018-05-20 12:00:00 13.2 13 Sudeste 20 Sur 0 -- -- 52
2018-05-20 11:00:00 13.1 8 Nordeste 13 Nordeste 0 -- -- 67
2018-05-20 10:00:00 11.5 4 Norte 8 Nordeste 0 -- -- 80
2018-05-20 09:00:00 9.7 3 Nordeste 6 Este 0 -- -- 87
2018-05-20 08:00:00 8.5 6 Este 9 Este 0 -- -- 95
2018-05-20 07:00:00 8 0 Calma 7 Este 0 -- -- 95
2018-05-20 06:00:00 7.9 6 Sudeste 9 Este 0 -- -- 94
2018-05-20 05:00:00 8.4 0 Calma 9 Noroeste 0 -- -- 92
2018-05-20 04:00:00 8.8 3 Este 9 Este 0 -- -- 92
2018-05-20 03:00:00 9.2 0 Calma 5 Sudeste 0 -- -- 92
2018-05-20 02:00:00 9.2 3 Noroeste 13 Sur 0 -- -- 92
2018-05-20 01:00:00 9.7 8 Sur 11 Sudoeste 0 -- -- 89
2018-05-20 00:00:00 10.1 6 Sur 9 Sur 0 -- -- 87
2018-05-19 23:00:00 10.2 2 Noroeste 6 Sudeste 0 -- -- 90
2018-05-19 22:00:00 10.5 5 Sudeste 8 Este 0 -- -- 86
2018-05-19 21:00:00 11.1 6 Este 15 Este 0 -- -- 82
2018-05-19 20:00:00 11.9 11 Este 17 Este 0 -- -- 79
2018-05-19 19:00:00 12.7 8 Sudeste 14 Sudeste 0 -- -- 73
2018-05-19 18:00:00 12.2 5 Este 10 Nordeste 0 -- -- 77
2018-05-19 17:00:00 11.2 6 Oeste 24 Este 1.2 -- -- 85
2018-05-19 16:00:00 11.3 14 Este 23 Sur 0 -- -- 82
2018-05-19 15:00:00 12 18 Sur 24 Sur 0 -- -- 71
2018-05-19 14:00:00 11.7 12 Sur 23 Sur 0.8 -- -- 83
2018-05-19 13:00:00 11.6 17 Sudoeste 24 Sur 0 -- -- 73
2018-05-19 12:00:00 13.4 11 Norte 19 Norte 0 -- -- 72
2018-05-19 11:00:00 11.2 10 Norte 19 Norte 0 -- -- 81
2018-05-19 10:00:00 8.8 11 Norte 17 Norte 0 -- -- 93
2018-05-19 09:00:00 7.4 6 Noroeste 10 Noroeste 0 -- -- 99
2018-05-19 08:00:00 5.2 2 Nordeste 6 Este 0 -- -- 99
2018-05-19 07:00:00 3.6 4 Este 9 Este 0 -- -- 97
2018-05-19 06:00:00 3.3 0 Calma 6 Sudeste 0 -- -- 96
2018-05-19 05:00:00 4 3 Sudeste 9 Este 0 -- -- 96
2018-05-19 04:00:00 4.4 0 Calma 8 Este 0 -- -- 95
2018-05-19 03:00:00 5.3 5 Este 9 Este 0 -- -- 96
2018-05-19 02:00:00 5.8 6 Este 8 Este 0 -- -- 94
2018-05-19 01:00:00 6.7 4 Este 9 Sudeste 0 -- -- 94
2018-05-19 00:00:00 7.2 4 Este 10 Este 0 -- -- 92
2018-05-18 23:00:00 8.2 0 Calma 13 Este 0 -- -- 91
2018-05-18 22:00:00 9.2 10 Este 13 Este 0 -- -- 87
2018-05-18 21:00:00 11.6 3 Sudoeste 5 Oeste 0 -- -- 73
2018-05-18 20:00:00 12.6 3 Oeste 6 Nordeste 0 -- -- 69
2018-05-18 19:00:00 14.1 3 Noroeste 17 Sur 0 -- -- 65
2018-05-18 18:00:00 12.7 9 Sur 15 Sur 0.2 -- -- 76
2018-05-18 17:00:00 10.2 5 Oeste 10 Sudoeste 0 -- -- 85
2018-05-18 16:00:00 9.8 8 Sur 14 Sur 1 -- -- 89
2018-05-18 15:00:00 10 4 Este 8 Oeste 1 -- -- 82
2018-05-18 14:00:00 8.9 9 Oeste 21 Sudoeste 6 -- -- 89
2018-05-18 13:00:00 12.5 16 Sudoeste 22 Sudoeste 0.2 -- -- 70
2018-05-18 12:00:00 14.1 10 Este 17 Sudeste 0 -- -- 67
2018-05-18 11:00:00 13.4 4 Nordeste 10 Nordeste 0 -- -- 66
2018-05-18 10:00:00 10.1 4 Nordeste 13 Norte 0 -- -- 86
2018-05-18 09:00:00 8.8 8 Norte 14 Norte 0 -- -- 91
2018-05-18 08:00:00 6.9 3 Norte 12 Este 0 -- -- 95
2018-05-18 07:00:00 4.7 9 Este 12 Este 0 -- -- 94
2018-05-18 06:00:00 5.1 0 Calma 10 Este 0 -- -- 94
2018-05-18 05:00:00 5.7 12 Este 14 Sudeste 0 -- -- 92
2018-05-18 04:00:00 6.8 3 Este 9 Nordeste 0 -- -- 91
2018-05-18 03:00:00 7.9 7 Este 8 Este 0 -- -- 88
2018-05-18 02:00:00 -- 0 Calma 4 Sudeste 0 -- -- --
2018-05-18 01:00:00 9.1 5 Sudoeste 8 Este 0 -- -- 84
2018-05-18 00:00:00 9.8 5 Sudeste 15 Sur 0 -- -- 81
2018-05-17 23:00:00 10.3 13 Sur 23 Sur 0 -- -- 76
2018-05-17 22:00:00 10.5 16 Sur 22 Sur 0 -- -- 74
2018-05-17 21:00:00 10.8 13 Sur 19 Sur 0 -- -- 72
2018-05-17 20:00:00 9.8 4 Oeste 13 Sudeste 0 -- -- 88
2018-05-17 19:00:00 9.4 7 Este 22 Nordeste 3.8 -- -- 87
2018-05-17 18:00:00 9.5 17 Nordeste 40 Este 1.8 -- -- 82
2018-05-17 17:00:00 14.8 13 Este 26 Oeste 0 -- -- 53
2018-05-17 16:00:00 17.4 5 Sudeste 31 Sur 0 -- -- 36
2018-05-17 15:00:00 16.5 13 Sudeste 22 Sudeste 0 -- -- 40
2018-05-17 14:00:00 16.9 9 Nordeste 19 Este 0 -- -- 39
2018-05-17 13:00:00 16.1 5 Sudoeste 16 Sudoeste 0 -- -- 42
2018-05-17 12:00:00 15.6 8 Noroeste 15 Noroeste 0 -- -- 40
2018-05-17 11:00:00 14.5 4 Sudoeste 17 Sudoeste 0 -- -- 46
2018-05-17 10:00:00 12.5 5 Sur 9 Sudoeste 0 -- -- 54
2018-05-17 09:00:00 7.9 0 Calma 4 Este 0 -- -- 77
2018-05-17 08:00:00 4.3 0 Calma 4 Este 0 -- -- 88
2018-05-17 07:00:00 2.5 2 Nordeste 7 Este 0 -- -- 90
2018-05-17 06:00:00 3.3 0 Calma 3 Norte 0 -- -- 91
2018-05-17 05:00:00 3.8 2 Norte 5 Este 0 -- -- 89
2018-05-17 04:00:00 4.1 4 Este 6 Este 0 -- -- 89
2018-05-17 03:00:00 4.8 5 Este 6 Este 0 -- -- 89
2018-05-17 02:00:00 5.2 7 Este 11 Este 0 -- -- 86
2018-05-17 01:00:00 6.8 0 Calma 11 Sudeste 0 -- -- 79
2018-05-17 00:00:00 8.4 4 Este 17 Sur 0 -- -- 74
2018-05-16 23:00:00 10.1 9 Sur 15 Sur 0 -- -- 65
2018-05-16 22:00:00 11.3 9 Sur 20 Sur 0 -- -- 61
2018-05-16 21:00:00 12.7 7 Sudeste 18 Sudeste 0 -- -- 60
2018-05-16 20:00:00 13.7 15 Sudeste 21 Sudeste 0 -- -- 56
2018-05-16 19:00:00 14.4 14 Este 20 Este 0 -- -- 56
2018-05-16 18:00:00 14.5 15 Este 23 Este 0 -- -- 55
2018-05-16 17:00:00 15.1 14 Este 22 Este 0 -- -- 52
2018-05-16 16:00:00 13.4 8 Este 14 Este 0 -- -- 65
2018-05-16 15:00:00 12.4 10 Este 24 Este 0 -- -- 66
2018-05-16 14:00:00 14.1 17 Sudeste 24 Sudeste 0 -- -- 53
2018-05-16 13:00:00 14.1 9 Sur 20 Sudeste 0 -- -- 52
2018-05-16 12:00:00 13.9 6 Sur 20 Sur 0 -- -- 56
2018-05-16 11:00:00 15 10 Sur 17 Sur 0 -- -- 51
2018-05-16 10:00:00 11 2 Noroeste 5 Nordeste 0 -- -- 15
2018-05-16 09:00:00 8.5 3 Nordeste 7 Este 0 -- -- 15
2018-05-16 08:00:00 4.8 4 Este 8 Nordeste 0 -- -- 15
2018-05-16 07:00:00 2.7 5 Este 9 Este 0 -- -- 15
2018-05-16 06:00:00 2.9 5 Nordeste 7 Nordeste 0 -- -- 15
2018-05-16 05:00:00 3.2 5 Este 8 Este 0 -- -- 15
2018-05-16 04:00:00 3.9 5 Nordeste 10 Nordeste 0 -- -- 15
2018-05-16 03:00:00 4.2 6 Nordeste 9 Este 0 -- -- 15
2018-05-16 02:00:00 4.6 8 Este 12 Este 0 -- -- 15
2018-05-16 01:00:00 5.4 5 Este 9 Este 0 -- -- 15
2018-05-16 00:00:00 6.9 5 Este 8 Este 0 -- -- 15
2018-05-15 23:00:00 7.8 5 Nordeste 13 Norte 0 -- -- 15
2018-05-15 22:00:00 9.3 8 Norte 17 Norte 0 -- -- 15
2018-05-15 21:00:00 11.8 11 Norte 26 Norte 0 -- -- 15
2018-05-15 20:00:00 13.9 20 Norte 27 Norte 0 -- -- 15
2018-05-15 19:00:00 15.4 18 Norte 26 Norte 0 -- -- 15
2018-05-15 18:00:00 16.1 12 Norte 24 Norte 0 -- -- 15
2018-05-15 17:00:00 15.9 10 Noroeste 19 Norte 0 -- -- 15
2018-05-15 16:00:00 15.1 10 Norte 25 Norte 0 -- -- 15
2018-05-15 15:00:00 13.5 13 Norte 25 Norte 0 -- -- 15
2018-05-15 14:00:00 11.5 13 Norte 27 Norte 0 -- -- 15
2018-05-15 13:00:00 9 13 Norte 27 Norte 0 -- -- 15
2018-05-15 12:00:00 6.7 14 Norte 26 Norte 0 -- -- 15
2018-05-15 11:00:00 4.5 17 Norte 27 Norte 0 -- -- 15
2018-05-15 10:00:00 3.4 17 Norte 26 Norte 0 -- -- 15
2018-05-15 09:00:00 2.9 16 Norte 27 Norte 0 -- -- 15
2018-05-15 08:00:00 2.3 18 Norte 27 Nordeste 0 -- -- 15
2018-05-15 07:00:00 2.3 18 Nordeste 32 Norte 0 -- -- 15
2018-05-15 06:00:00 2.3 21 Norte 29 Norte 0 -- -- 15
2018-05-15 05:00:00 2.1 14 Norte 19 Norte 0 -- -- 15
2018-05-15 04:00:00 1.5 8 Norte 18 Norte 0 -- -- 15
2018-05-15 03:00:00 1.9 10 Norte 37 Norte 0 -- -- 15
2018-05-15 02:00:00 2.6 21 Norte 30 Norte 0 -- -- 23
2018-05-15 01:00:00 3.3 18 Norte 43 Norte 0 -- -- 22
2018-05-15 00:00:00 4.2 30 Norte 50 Norte 0 -- -- 22
2018-05-14 23:00:00 4.7 24 Norte 37 Norte 0 -- -- 52
2018-05-14 22:00:00 6 24 Norte 39 Norte 0 -- -- 56
2018-05-14 21:00:00 8.4 21 Norte 45 Norte 0 -- -- 42
2018-05-14 20:00:00 10.8 30 Noroeste 46 Oeste 0 -- -- 43
2018-05-14 19:00:00 11.9 28 Noroeste 49 Noroeste 0 -- -- 43
2018-05-14 18:00:00 12.3 24 Noroeste 48 Noroeste 0 -- -- 42
2018-05-14 17:00:00 11.7 30 Noroeste 47 Noroeste 0 -- -- 40
2018-05-14 16:00:00 11.4 25 Noroeste 50 Norte 0 -- -- 42
2018-05-14 15:00:00 10.4 27 Noroeste 48 Noroeste 0 -- -- 43
2018-05-14 14:00:00 9.5 27 Noroeste 47 Noroeste 0 -- -- 43
2018-05-14 13:00:00 9.1 27 Noroeste 47 Oeste 0 -- -- 19
2018-05-14 12:00:00 8.2 24 Noroeste 45 Noroeste 0 -- -- 19
2018-05-14 11:00:00 6.5 24 Noroeste 41 Noroeste 0 -- -- 19
2018-05-14 10:00:00 5.5 30 Noroeste 48 Noroeste 0 -- -- 18
2018-05-14 09:00:00 4.2 30 Noroeste 46 Noroeste 0 -- -- 18
2018-05-14 08:00:00 3.6 19 Noroeste 29 Noroeste 0 -- -- 18
2018-05-14 07:00:00 3.3 14 Noroeste 24 Noroeste 0 -- -- 18
2018-05-14 06:00:00 2.9 20 Oeste 28 Oeste 0 -- -- 18
2018-05-14 05:00:00 3.3 9 Noroeste 14 Norte 0 -- -- 18
2018-05-14 04:00:00 4 6 Noroeste 12 Noroeste 0 -- -- 18
2018-05-14 03:00:00 3.7 5 Este 8 Norte 0 -- -- 18
2018-05-14 02:00:00 3.3 5 Norte 7 Norte 0 -- -- 18
2018-05-14 01:00:00 2.7 5 Norte 9 Noroeste 0 -- -- 18
2018-05-11 20:00:00 -- -- -- -- -- -- -- -- --
2018-05-11 19:00:00 18.7 18 Sudoeste 30 Sudoeste 0 -- -- 43
2018-05-11 18:00:00 19.1 15 Sudoeste 28 Oeste 0 -- -- 44
2018-05-11 17:00:00 19.8 13 Sudoeste 36 Sudoeste 0 -- -- 43
2018-05-11 16:00:00 19.2 16 Sudoeste 36 Sudoeste 0 -- -- 43
2018-05-11 15:00:00 19 18 Sudoeste 30 Oeste 0 -- -- 44
2018-05-11 14:00:00 17.6 13 Sudoeste 28 Sudoeste 0 -- -- 43
2018-05-11 13:00:00 17.1 17 Sudoeste 34 Sudoeste 0 -- -- 41
2018-05-11 12:00:00 16 14 Sur 24 Sudoeste 0 -- -- 36
2018-05-11 11:00:00 14.3 14 Sur 22 Sudoeste 0 -- -- 38
2018-05-11 10:00:00 12.4 10 Sur 20 Sur 0 -- -- 40
2018-05-11 09:00:00 10.4 13 Sur 21 Sur 0 -- -- 39
2018-05-11 08:00:00 8.6 9 Sur 15 Sur 0 -- -- 39
2018-05-11 07:00:00 7.3 8 Sur 16 Sur 0 -- -- 39
2018-05-11 06:00:00 7.4 13 Sur 20 Sur 0 -- -- 48
2018-05-11 05:00:00 7.4 7 Sudoeste 17 Sur 0 -- -- 49
2018-05-11 04:00:00 7.5 10 Sur 21 Sur 0 -- -- 49
2018-05-11 03:00:00 8.3 15 Sur 20 Sur 0 -- -- 51
2018-05-11 02:00:00 8.8 10 Sur 15 Sur 0 -- -- 51
2018-05-11 01:00:00 8.9 8 Sur 12 Sur 0 -- -- 51
2018-05-11 00:00:00 9.1 8 Sur 13 Sur 0 -- -- 50
2018-05-10 23:00:00 10 9 Sudeste 18 Sur 0 -- -- 51
2018-05-10 22:00:00 10.8 15 Sur 27 Sur 0 -- -- 53
2018-05-10 21:00:00 11.7 19 Sur 30 Sur 0 -- -- 53
2018-05-10 20:00:00 13.6 16 Sudeste 23 Sudeste 0 -- -- 53
2018-05-10 19:00:00 16.4 9 Norte 14 Noroeste 0 -- -- 47
2018-05-10 18:00:00 15.7 6 Norte 15 Norte 0 -- -- 47
2018-05-10 17:00:00 15.3 10 Norte 26 Norte 0 -- -- 46
2018-05-10 16:00:00 15.4 10 Norte 24 Nordeste 0 -- -- 45
2018-05-10 15:00:00 15.1 13 Norte 24 Norte 0 -- -- 50
2018-05-10 14:00:00 14.4 12 Norte 22 Norte 0 -- -- 52
2018-05-10 13:00:00 12.7 16 Nordeste 27 Norte 0 -- -- 50
2018-05-10 12:00:00 11.8 18 Norte 27 Nordeste 0 -- -- 49
2018-05-10 11:00:00 9.7 16 Norte 25 Norte 0 -- -- 45
2018-05-10 10:00:00 8 15 Norte 25 Norte 0 -- -- 42
2018-05-10 09:00:00 7 18 Nordeste 28 Nordeste 0 -- -- 46
2018-05-10 08:00:00 6.3 15 Nordeste 25 Nordeste 0 -- -- 45
2018-05-10 07:00:00 6.2 15 Nordeste 23 Nordeste 0 -- -- 45
2018-05-10 06:00:00 7.1 9 Norte 16 Norte 0 -- -- 45
2018-05-10 05:00:00 7.2 7 Nordeste 13 Nordeste 0 -- -- 45
2018-05-10 04:00:00 7.9 9 Norte 18 Norte 0 -- -- 45
2018-05-10 03:00:00 8.4 6 Norte 17 Norte 0 -- -- 45
2018-05-10 02:00:00 8.5 5 Norte 14 Norte 0 -- -- 45
2018-05-10 01:00:00 9.3 11 Norte 21 Norte 0 -- -- 45
2018-05-10 00:00:00 10.6 9 Norte 18 Norte 0 -- -- 45
2018-05-09 23:00:00 12.1 2 Norte 16 Sur 0 -- -- 44
2018-05-09 22:00:00 12.9 10 Sur 28 Sur 0 -- -- 44
2018-05-09 21:00:00 15.3 5 Norte 21 Nordeste 0 -- -- 44
2018-05-09 20:00:00 17.9 15 Norte 25 Norte 0 -- -- 41
2018-05-09 19:00:00 19.1 14 Noroeste 30 Norte 0 -- -- 34
2018-05-09 18:00:00 19 16 Noroeste 32 Oeste 0 -- -- 37
2018-05-09 17:00:00 18.5 15 Noroeste 31 Noroeste 0 -- -- 35
2018-05-09 16:00:00 18.1 15 Noroeste 31 Noroeste 0 -- -- 33
2018-05-09 15:00:00 17.4 20 Noroeste 35 Oeste 0 -- -- 34
2018-05-09 14:00:00 16.4 20 Noroeste 32 Noroeste 0 -- -- 40
2018-05-09 13:00:00 14.8 19 Noroeste 32 Noroeste 0 -- -- 44
2018-05-09 12:00:00 13.8 19 Noroeste 29 Oeste 0 -- -- 44
2018-05-09 11:00:00 12.4 10 Norte 17 Norte 0 -- -- 44
2018-05-09 10:00:00 9.9 12 Nordeste 18 Norte 0 -- -- 44
2018-05-09 09:00:00 7.4 10 Norte 25 Norte 0 -- -- 44
2018-05-09 08:00:00 6.5 8 Este 15 Este 0 -- -- 44
2018-05-09 07:00:00 4.7 6 Este 9 Este 0 -- -- 44
2018-05-09 06:00:00 5.1 4 Nordeste 8 Este 0 -- -- 44
2018-05-09 05:00:00 5.5 10 Este 15 Este 0 -- -- 44
2018-05-09 04:00:00 6.4 5 Este 10 Norte 0 -- -- 43
2018-05-09 03:00:00 7 4 Nordeste 11 Noroeste 0 -- -- 43
2018-05-09 02:00:00 7.7 6 Noroeste 13 Nordeste 0 -- -- 43
2018-05-09 01:00:00 8.9 10 Nordeste 21 Norte 0 -- -- 43
2018-05-09 00:00:00 9.3 14 Norte 20 Norte 0 -- -- 43
2018-05-08 23:00:00 10.6 8 Norte 19 Norte 0 -- -- 43
2018-05-08 22:00:00 12.2 13 Norte 31 Norte 0 -- -- 43
2018-05-08 21:00:00 14.4 12 Norte 23 Norte 0 -- -- 43
2018-05-08 20:00:00 16.2 15 Norte 26 Norte 0 -- -- 43
2018-05-08 19:00:00 16 15 Norte 26 Nordeste 0 -- -- 43
2018-05-08 18:00:00 16 16 Norte 32 Norte 0 -- -- 43
2018-05-08 17:00:00 16.6 18 Norte 35 Norte 0 -- -- 43
2018-05-08 16:00:00 16.8 20 Norte 36 Nordeste 0 -- -- 43
2018-05-08 15:00:00 16 19 Norte 31 Norte 0 -- -- 43
2018-05-08 14:00:00 15.1 19 Noroeste 33 Norte 0 -- -- 43
2018-05-08 13:00:00 13.4 3 Noroeste 11 Nordeste 0.2 -- -- 44
2018-05-08 12:00:00 10 10 Noroeste 30 Norte 3.2 -- -- 43
2018-05-08 11:00:00 13.2 8 Nordeste 16 Nordeste 0 -- -- 43
2018-05-08 10:00:00 9.1 0 Calma 8 Oeste 3.6 -- -- 43
2018-05-08 09:00:00 7.9 3 Nordeste 6 Este 0 -- -- 43
2018-05-08 08:00:00 6.9 7 Este 9 Este 0 -- -- 43
2018-05-08 07:00:00 6.6 2 Oeste 6 Sudeste 0 -- -- 43
2018-05-08 06:00:00 6.9 4 Este 8 Este 0 -- -- 43
2018-05-08 05:00:00 6.8 6 Este 9 Este 0 -- -- 43
2018-05-08 04:00:00 7.1 4 Nordeste 6 Este 0 -- -- 43
2018-05-08 03:00:00 7.7 3 Este 5 Norte 0 -- -- 43
2018-05-08 02:00:00 8 3 Noroeste 12 Nordeste 0 -- -- 43
2018-05-08 01:00:00 8.2 5 Nordeste 10 Este 0 -- -- 43
2018-05-08 00:00:00 8.6 5 Nordeste 9 Este 0 -- -- 43
2018-05-07 23:00:00 9.4 5 Norte 11 Norte 0 -- -- 43
2018-05-07 22:00:00 10.1 6 Nordeste 10 Norte 0 -- -- 43
2018-05-07 21:00:00 11.2 6 Este 9 Sudeste 0 -- -- 43
2018-05-07 20:00:00 12 6 Este 8 Sudeste 0 -- -- 43
2018-05-07 19:00:00 11.9 3 Nordeste 17 Sudoeste 0.2 -- -- 43
2018-05-07 18:00:00 11.9 14 Sudoeste 18 Sur 2.8 -- -- 43
2018-05-07 17:00:00 13.8 5 Sudoeste 10 Sudoeste 0 -- -- 43
2018-05-07 16:00:00 12 3 Sudoeste 24 Sudeste 7 -- -- 43
2018-05-07 15:00:00 11.7 20 Sur 37 Sudeste 1.2 -- -- 43
2018-05-07 14:00:00 15.5 18 Nordeste 27 Nordeste 0 -- -- 43
2018-05-07 13:00:00 14.5 14 Norte 25 Nordeste 0 -- -- 43
2018-05-07 12:00:00 14 12 Norte 20 Norte 0 -- -- 43
2018-05-07 11:00:00 11.9 12 Norte 17 Norte 0 -- -- 42
2018-05-07 10:00:00 9.7 8 Norte 12 Norte 0 -- -- 42
2018-05-07 09:00:00 7.4 6 Nordeste 9 Nordeste 0 -- -- 43
2018-05-07 08:00:00 4.9 0 Calma 7 Este 0 -- -- 43
2018-05-07 07:00:00 3.4 0 Calma 4 Norte 0 -- -- 42
2018-05-07 06:00:00 3 3 Oeste 13 Este 0 -- -- 42
2018-05-07 05:00:00 3.5 6 Nordeste 9 Este 0 -- -- 42
2018-05-07 04:00:00 4 3 Este 5 Este 0 -- -- 42
2018-05-07 03:00:00 4.6 5 Sudeste 12 Este 0.2 -- -- 44
2018-05-07 02:00:00 5.1 3 Oeste 12 Este 0 -- -- 42
2018-05-07 01:00:00 5.5 3 Nordeste 6 Este 0 -- -- 42
2018-05-07 00:00:00 6 2 Oeste 10 Este 0 -- -- 43
2018-05-06 23:00:00 7.1 6 Sudeste 8 Sudeste 0 -- -- 43
2018-05-06 22:00:00 8.2 3 Sudoeste 16 Sur 0 -- -- 43
2018-05-06 21:00:00 9.2 12 Sur 15 Sur 0 -- -- 42
2018-05-06 20:00:00 10.2 9 Sur 17 Sur 0 -- -- 47
2018-05-06 19:00:00 10.7 13 Sur 21 Sur 0.2 -- -- 46
2018-05-06 18:00:00 11.5 14 Sur 30 Sudeste 0.6 -- -- 47
2018-05-06 17:00:00 13.2 13 Sur 25 Sur 0.2 -- -- 48
2018-05-06 16:00:00 14.6 17 Sur 27 Sur 0 -- -- 47
2018-05-06 15:00:00 15 7 Sur 24 Sudeste 0 -- -- 46
2018-05-06 14:00:00 14.3 14 Nordeste 26 Nordeste 0 -- -- 46
2018-05-06 13:00:00 15.1 7 Nordeste 19 Norte 0 -- -- 46
2018-05-06 12:00:00 13.5 9 Norte 20 Norte 0 -- -- 47
2018-05-06 11:00:00 13 6 Norte 14 Norte 0 -- -- 47
2018-05-06 10:00:00 10.9 6 Norte 13 Norte 0 -- -- 51
2018-05-06 09:00:00 6 0 Calma 5 Oeste 0 -- -- 51
2018-05-06 08:00:00 4.3 4 Este 7 Este 0 -- -- 51
2018-05-06 07:00:00 2.9 0 Calma 9 Este 0 -- -- 51
2018-05-06 06:00:00 3.3 2 Este 5 Este 0 -- -- 54
2018-05-06 05:00:00 3.4 3 Sudoeste 8 Este 0 -- -- 49
2018-05-06 04:00:00 3.5 5 Este 15 Este 0 -- -- 49
2018-05-06 03:00:00 4.9 5 Este 7 Este 0 -- -- 49
2018-05-06 02:00:00 5.2 5 Sudeste 8 Sudeste 0 -- -- 48
2018-05-06 01:00:00 6.2 4 Este 12 Este 0 -- -- 47
2018-05-06 00:00:00 7.1 3 Sudeste 5 Este 0 -- -- 47
2018-05-05 23:00:00 7.7 4 Sudoeste 9 Este 0 -- -- 46
2018-05-05 22:00:00 8.8 8 Sur 14 Sur 0 -- -- 45
2018-05-05 21:00:00 9.9 12 Sur 19 Sur 0 -- -- 45
2018-05-05 20:00:00 11.1 14 Sudeste 22 Sudeste 0 -- -- 45
2018-05-05 19:00:00 11.8 14 Sur 25 Sur 0 -- -- 45
2018-05-05 18:00:00 12.5 13 Sudeste 26 Este 0 -- -- 46
2018-05-05 17:00:00 12.6 15 Sudeste 28 Sudeste 0 -- -- 46
2018-05-05 16:00:00 13.5 19 Sudeste 28 Sudeste 0 -- -- 45
2018-05-05 15:00:00 13.8 12 Sudeste 25 Nordeste 0 -- -- 45
2018-05-05 14:00:00 15.3 12 Nordeste 28 Nordeste 0 -- -- 45
2018-05-05 13:00:00 15.1 18 Nordeste 25 Nordeste 0 -- -- 45
2018-05-05 12:00:00 14 14 Norte 24 Norte 0 -- -- 45
2018-05-05 11:00:00 13.4 14 Norte 21 Norte 0 -- -- 45
2018-05-05 10:00:00 11.1 6 Norte 12 Nordeste 0 -- -- 45
2018-05-05 09:00:00 7 3 Nordeste 5 Nordeste 0 -- -- 46
2018-05-05 08:00:00 5.5 2 Nordeste 5 Este 0 -- -- 46
2018-05-05 07:00:00 5.3 5 Este 7 Este 0 -- -- 46
2018-05-05 06:00:00 5.9 3 Nordeste 6 Nordeste 0 -- -- 46
2018-05-05 05:00:00 5.9 4 Este 9 Norte 0 -- -- 46
2018-05-05 04:00:00 5.6 2 Nordeste 8 Norte 0 -- -- 46
2018-05-05 03:00:00 5.9 3 Norte 10 Norte 0 -- -- 44
2018-05-05 02:00:00 6.6 5 Norte 13 Norte 0 -- -- 43
2018-05-05 01:00:00 7.3 5 Norte 18 Norte 0 -- -- 43
2018-05-05 00:00:00 8 11 Norte 15 Norte 0 -- -- 42
2018-05-04 23:00:00 8.6 11 Norte 18 Norte 0 -- -- 42
2018-05-04 22:00:00 9.1 10 Norte 19 Norte 0 -- -- 42
2018-05-04 21:00:00 10.5 10 Norte 20 Norte 0 -- -- 42
2018-05-04 20:00:00 11.5 14 Norte 23 Norte 0 -- -- 42
2018-05-04 19:00:00 12.6 13 Norte 22 Nordeste 0 -- -- 42
2018-05-04 18:00:00 13.3 15 Nordeste 28 Nordeste 0 -- -- 43
2018-05-04 17:00:00 14.4 15 Norte 28 Nordeste 0 -- -- 45
2018-05-04 16:00:00 13.7 11 Norte 26 Norte 0 -- -- 45
2018-05-04 15:00:00 13 17 Nordeste 27 Nordeste 0 -- -- 44
2018-05-04 14:00:00 12 13 Norte 26 Norte 0 -- -- 44
2018-05-04 13:00:00 10.1 16 Norte 27 Nordeste 0 -- -- 44
2018-05-04 12:00:00 6.5 18 Norte 31 Nordeste 0 -- -- 45
2018-05-04 11:00:00 4.1 21 Norte 31 Norte 0 -- -- 47
2018-05-04 10:00:00 2.8 19 Norte 28 Norte 0 -- -- 47
2018-05-04 09:00:00 2.2 18 Norte 27 Norte 0 -- -- 48
2018-05-04 08:00:00 1.8 17 Norte 24 Norte 0 -- -- 48
2018-05-04 07:00:00 1.4 14 Norte 24 Nordeste 0 -- -- 47
2018-05-04 06:00:00 1.5 15 Nordeste 25 Nordeste 0 -- -- 45
2018-05-04 05:00:00 1.6 15 Norte 29 Norte 0 -- -- 48
2018-05-04 04:00:00 1.5 17 Norte 29 Norte 0 -- -- 46
2018-05-04 03:00:00 1.5 17 Norte 30 Nordeste 0 -- -- 45
2018-05-04 02:00:00 1.6 15 Nordeste 27 Norte 0 -- -- 44
2018-05-04 01:00:00 2.3 18 Norte 33 Norte 0 -- -- 45
2018-05-04 00:00:00 2.8 21 Nordeste 39 Norte 0 -- -- 44
2018-05-03 23:00:00 3.8 27 Norte 39 Norte 0 -- -- 44
2018-05-03 22:00:00 4.8 27 Norte 39 Norte 0 -- -- 45
2018-05-03 21:00:00 5.7 24 Norte 39 Norte 0 -- -- 45
2018-05-03 20:00:00 7.4 22 Norte 35 Norte 0 -- -- 41
2018-05-03 19:00:00 9.6 24 Norte 35 Noroeste 0 -- -- 41
2018-05-03 18:00:00 10.2 24 Noroeste 45 Noroeste 0 -- -- 41
2018-05-03 17:00:00 10.3 22 Noroeste 34 Norte 0 -- -- 41
2018-05-03 16:00:00 10 24 Norte 40 Norte 0 -- -- 41
2018-05-03 15:00:00 10.6 27 Norte 41 Norte 0 -- -- 41
2018-05-03 14:00:00 10 28 Norte 44 Norte 0 -- -- 41
2018-05-03 13:00:00 9.5 25 Noroeste 41 Noroeste 0 -- -- 41
2018-05-03 12:00:00 8.7 25 Noroeste 39 Norte 0 -- -- 41
2018-05-03 11:00:00 8 28 Norte 56 Norte 0 -- -- 41
2018-05-03 10:00:00 7.2 26 Norte 42 Noroeste 0 -- -- 41
2018-05-03 09:00:00 5.8 24 Norte 48 Norte 0 -- -- 41
2018-05-03 08:00:00 5.7 35 Norte 57 Noroeste 0 -- -- 41
2018-05-03 07:00:00 5.8 30 Noroeste 54 Noroeste 0 -- -- 41
2018-05-03 06:00:00 5.8 36 Noroeste 53 Noroeste 0 -- -- 41
2018-05-03 05:00:00 5.7 30 Noroeste 49 Noroeste 0 -- -- 41
2018-05-03 04:00:00 5.9 29 Noroeste 59 Norte 0 -- -- 41
2018-05-03 03:00:00 6.4 36 Noroeste 63 Norte 0 -- -- 41
2018-05-03 02:00:00 5.6 26 Norte 37 Norte 0 -- -- 41
2018-05-03 01:00:00 5.9 22 Norte 33 Norte 0 -- -- 41
2018-05-03 00:00:00 6.2 14 Norte 25 Norte 0 -- -- 41
2018-05-02 23:00:00 6.5 16 Norte 27 Noroeste 0 -- -- 41
2018-05-02 22:00:00 8.4 18 Noroeste 33 Oeste 0 -- -- 41
2018-05-02 21:00:00 9.5 21 Noroeste 45 Noroeste 0 -- -- 41
2018-05-02 20:00:00 10.9 24 Noroeste 41 Noroeste 0 -- -- 41
2018-05-02 19:00:00 10.5 28 Noroeste 42 Noroeste 0 -- -- 41
2018-05-02 18:00:00 10.4 27 Noroeste 41 Noroeste 0 -- -- 41
2018-05-02 17:00:00 10.2 24 Noroeste 40 Noroeste 0 -- -- 41
2018-05-02 16:00:00 10.3 25 Noroeste 39 Oeste 0 -- -- 41
2018-05-02 15:00:00 10 27 Noroeste 47 Noroeste 0 -- -- 41
2018-05-02 14:00:00 9.4 23 Noroeste 39 Noroeste 0 -- -- 41
2018-05-02 13:00:00 9 20 Noroeste 41 Oeste 0 -- -- 41
2018-05-02 12:00:00 8.4 23 Noroeste 36 Noroeste 0 -- -- 41
2018-05-02 11:00:00 7.1 23 Noroeste 39 Noroeste 0 -- -- 42
2018-05-02 10:00:00 6.3 19 Noroeste 33 Noroeste 0 -- -- 42
2018-05-02 09:00:00 4.7 6 Norte 11 Norte 0 -- -- 42
2018-05-02 08:00:00 0.8 5 Este 8 Este 0 -- -- 42
2018-05-02 07:00:00 -0.6 5 Nordeste 9 Este 0 -- -- 42
2018-05-02 06:00:00 -0.2 5 Este 18 Nordeste 0 -- -- 42
2018-05-02 05:00:00 -1.4 7 Este 11 Este 0 -- -- 42
2018-05-02 04:00:00 -2 7 Este 12 Este 0 -- -- 42
2018-05-02 03:00:00 -1.5 5 Sudeste 9 Este 0 -- -- 42
2018-05-02 02:00:00 -0.9 2 Sudeste 6 Este 0 -- -- 42
2018-05-02 01:00:00 0.1 6 Sudeste 10 Este 0 -- -- 42
2018-05-02 00:00:00 1.2 6 Este 10 Este 0 -- -- 42
2018-05-01 23:00:00 2.3 4 Nordeste 10 Norte 0 -- -- 42
2018-05-01 22:00:00 3.6 7 Norte 16 Nordeste 0 -- -- 43
2018-05-01 21:00:00 5.4 13 Nordeste 26 Norte 0 -- -- 43
2018-05-01 20:00:00 7.8 15 Noroeste 27 Oeste 0 -- -- 42
2018-05-01 19:00:00 9.1 18 Noroeste 30 Noroeste 0 -- -- 40
2018-05-01 18:00:00 9.2 17 Norte 30 Oeste 0 -- -- 43
2018-05-01 17:00:00 7.8 15 Norte 30 Noroeste 0 -- -- 43
2018-05-01 16:00:00 7.2 13 Norte 26 Norte 0 -- -- 44
2018-05-01 15:00:00 6.1 16 Nordeste 25 Nordeste 0 -- -- 44
2018-05-01 14:00:00 5.5 15 Norte 27 Norte 0 -- -- 44
2018-05-01 13:00:00 4 18 Norte 28 Norte 0 -- -- 47
2018-05-01 12:00:00 3.5 19 Nordeste 28 Norte 0 -- -- 44
2018-05-01 11:00:00 2.7 18 Norte 29 Norte 0 -- -- 44
2018-05-01 10:00:00 1.3 18 Norte 24 Norte 0 -- -- 43
2018-05-01 09:00:00 0.3 15 Norte 30 Norte 0 -- -- 43
2018-05-01 08:00:00 -0.2 16 Norte 29 Noroeste 0 -- -- 43
2018-05-01 07:00:00 0.4 14 Norte 21 Norte 0 -- -- 43
2018-05-01 06:00:00 0.3 12 Norte 20 Norte 0 -- -- 43
2018-05-01 05:00:00 0.4 9 Norte 23 Noroeste 0 -- -- 42
2018-05-01 04:00:00 0.3 12 Norte 27 Norte 0 -- -- 42
2018-05-01 03:00:00 0.3 8 Norte 24 Norte 0 -- -- 42
2018-05-01 02:00:00 0.8 11 Norte 18 Norte 0 -- -- 42
2018-05-01 01:00:00 1 9 Norte 15 Noroeste 0 -- -- 42
2018-05-01 00:00:00 0.8 8 Norte 12 Noroeste 0 -- -- 42
2018-04-30 23:00:00 1.2 10 Nordeste 13 Nordeste 0.2 -- -- 42
2018-04-30 22:00:00 1.1 6 Nordeste 23 Norte 0.6 -- -- 42
2018-04-30 21:00:00 1.6 17 Noroeste 29 Noroeste 2 -- -- 42
2018-04-30 20:00:00 3.9 23 Oeste 36 Oeste 0 -- -- 42
2018-04-30 19:00:00 6.5 7 Noroeste 30 Sudoeste 0 -- -- 42
2018-04-30 18:00:00 7.9 17 Sudoeste 26 Sudoeste 0 -- -- 42
2018-04-30 17:00:00 7.6 12 Sudoeste 23 Sudoeste 0 -- -- 42
2018-04-30 16:00:00 5.9 14 Oeste 26 Oeste 0 -- -- 42
2018-04-30 15:00:00 6.3 15 Oeste 30 Sudoeste 0 -- -- 42
2018-04-30 14:00:00 5.7 16 Oeste 32 Oeste 0 -- -- 42
2018-04-30 13:00:00 5.1 16 Sudoeste 25 Sudoeste 0 -- -- 42
2018-04-30 12:00:00 4.6 10 Sudoeste 21 Sudoeste 0 -- -- 42
2018-04-30 11:00:00 3.5 8 Oeste 19 Oeste 0 -- -- 42
2018-04-30 10:00:00 2.9 14 Sudoeste 21 Sudoeste 0 -- -- 42
2018-04-30 09:00:00 2.4 5 Sudoeste 10 Oeste 0 -- -- 43
2018-04-30 08:00:00 -0.7 4 Oeste 9 Este 0 -- -- 43
2018-04-30 07:00:00 -1 0 Calma 6 Oeste 0 -- -- 43
2018-04-30 06:00:00 -0.4 3 Sudoeste 6 Sudoeste 0 -- -- 43
2018-04-30 05:00:00 0.1 5 Sudeste 11 Este 0 -- -- 43
2018-04-30 04:00:00 0.9 2 Sudoeste 12 Sudeste 0 -- -- 43
2018-04-30 03:00:00 0.9 6 Sudoeste 17 Sudoeste 0 -- -- 43
2018-04-30 02:00:00 1.4 12 Sudoeste 20 Sudoeste 0 -- -- 43
2018-04-30 01:00:00 1.6 11 Sur 27 Sudoeste 0 -- -- 43
2018-04-30 00:00:00 2.1 10 Sur 28 Sudoeste 0 -- -- 43
2018-04-29 23:00:00 2.9 15 Sudoeste 50 Oeste 0 -- -- 43
2018-04-29 22:00:00 3.3 33 Oeste 46 Sudoeste 0 -- -- 43
2018-04-29 21:00:00 3.7 28 Sudoeste 52 Oeste 0 -- -- 43
2018-04-29 20:00:00 6 37 Oeste 51 Oeste 0 -- -- 43
2018-04-29 19:00:00 6.6 40 Oeste 75 Oeste 0 -- -- 43
2018-04-29 18:00:00 7.1 53 Oeste 76 Oeste 0 -- -- 43
2018-04-29 17:00:00 6.8 50 Oeste 74 Oeste 0 -- -- 43
2018-04-29 16:00:00 6.1 46 Oeste 64 Oeste 0 -- -- 43
2018-04-29 15:00:00 5 31 Oeste 58 Sudoeste 0.8 -- -- 43
2018-04-29 14:00:00 2.8 32 Oeste 57 Sudoeste 1.2 -- -- 43
2018-04-29 13:00:00 3.4 24 Sudoeste 45 Sudoeste 0.8 -- -- 43
2018-04-29 12:00:00 3.9 29 Sudoeste 48 Sudoeste 0 -- -- 43
2018-04-29 11:00:00 4.2 30 Sudoeste 49 Sudoeste 0 -- -- 43
2018-04-29 10:00:00 3.3 25 Sudoeste 41 Sudoeste 0 -- -- 43
2018-04-29 09:00:00 3 25 Sudoeste 44 Sudoeste 0 -- -- 43
2018-04-29 08:00:00 4.3 22 Sudoeste 37 Sur 0 -- -- 43
2018-04-29 07:00:00 4.8 14 Sudoeste 21 Sudoeste 0 -- -- 43
2018-04-29 06:00:00 5.4 9 Sur 27 Sudoeste 0 -- -- 43
2018-04-29 05:00:00 6.5 17 Sudoeste 28 Sudoeste 0 -- -- 43
2018-04-29 04:00:00 7 13 Sur 19 Sudeste 0.2 -- -- 44
2018-04-29 03:00:00 7.2 9 Sudeste 18 Sur 2.6 -- -- 44
2018-04-29 02:00:00 8.2 9 Sudoeste 24 Sudoeste 2 -- -- 44
2018-04-29 01:00:00 9.2 12 Sudeste 20 Sur 0 -- -- 44
2018-04-29 00:00:00 9.3 13 Sur 21 Sur 0 -- -- 44
2018-04-28 23:00:00 9.6 14 Sur 26 Sudeste 0 -- -- 44
2018-04-28 22:00:00 10.1 19 Sudeste 40 Sur 0 -- -- 44
2018-04-28 21:00:00 10.8 26 Sudeste 41 Sudeste 0.4 -- -- 44
2018-04-28 20:00:00 12.1 28 Sudeste 46 Sudeste 0 -- -- 44
2018-04-28 19:00:00 14.8 22 Sur 55 Sudoeste 0 -- -- 44
2018-04-28 18:00:00 16.7 29 Sudoeste 66 Sudoeste 0 -- -- 40
2018-04-28 17:00:00 16.8 34 Sudoeste 64 Sudoeste 0 -- -- 38
2018-04-28 16:00:00 16.4 34 Sudoeste 55 Sur 0 -- -- 38
2018-04-28 15:00:00 17.1 33 Sur 51 Sur 0 -- -- 32
2018-04-28 14:00:00 16.5 31 Sur 49 Sur 0 -- -- 36
2018-04-28 13:00:00 15.6 26 Sur 40 Sudeste 0 -- -- 40
2018-04-28 12:00:00 14.4 24 Sur 35 Sur 0 -- -- 45
2018-04-28 11:00:00 13 16 Sur 30 Sudeste 0 -- -- 45
2018-04-28 10:00:00 11.7 17 Sur 27 Sur 0 -- -- 46
2018-04-28 09:00:00 9.4 8 Sur 12 Sur 0 -- -- 47
2018-04-28 08:00:00 5.9 0 Calma 5 Oeste 0 -- -- 47
2018-04-28 07:00:00 5 0 Calma 13 Sur 0 -- -- 47
2018-04-28 06:00:00 5.7 0 Calma 11 Sur 0 -- -- 48
2018-04-28 05:00:00 7.1 5 Sur 10 Sur 0 -- -- 48
2018-04-28 04:00:00 8 0 Calma 12 Sur 0 -- -- 49
2018-04-28 03:00:00 8.2 5 Sur 13 Sur 0 -- -- 51
2018-04-28 02:00:00 9.2 3 Este 16 Sur 0 -- -- 55
2018-04-28 01:00:00 10.3 15 Sur 29 Sur 0 -- -- 87
2018-04-28 00:00:00 10.9 18 Sur 30 Sur 0 -- -- 85
2018-04-27 23:00:00 11.5 20 Sur 41 Sudeste 0 -- -- 83
2018-04-27 22:00:00 12.1 29 Sudeste 43 Sudeste 0 -- -- 80
2018-04-27 21:00:00 12.8 21 Sur 37 Sudeste 0 -- -- 76
2018-04-27 20:00:00 15.2 23 Sur 41 Sur 0 -- -- 67
2018-04-27 19:00:00 16.7 27 Sudeste 41 Sudoeste 0 -- -- 60
2018-04-27 18:00:00 17.7 11 Sur 36 Oeste 0 -- -- 57
2018-04-27 17:00:00 16 26 Oeste 44 Oeste 0.8 -- -- 62
2018-04-27 16:00:00 17.8 9 Sudoeste 60 Oeste 1.4 -- -- 54
2018-04-27 15:00:00 14.2 28 Oeste 52 Oeste 5.2 -- -- 60
2018-04-27 14:00:00 19.8 17 Oeste 32 Oeste 0 -- -- 45
2018-04-27 13:00:00 18.7 12 Oeste 27 Oeste 0 -- -- 48
2018-04-27 12:00:00 17.9 13 Oeste 23 Oeste 0 -- -- 51
2018-04-27 11:00:00 16.9 10 Oeste 18 Sudoeste 0 -- -- 59
2018-04-27 10:00:00 14.9 11 Oeste 24 Oeste 0 -- -- 66
2018-04-27 09:00:00 12.4 4 Sudoeste 9 Oeste 0 -- -- 73
2018-04-27 08:00:00 8.1 6 Sudeste 12 Este 0 -- -- 87
2018-04-27 07:00:00 6.8 0 Calma 12 Este 0 -- -- 84
2018-04-27 06:00:00 7.9 5 Sudeste 15 Sudeste 0 -- -- 82
2018-04-27 05:00:00 8.5 8 Sudeste 15 Este 0 -- -- 81
2018-04-27 04:00:00 10.1 6 Sudeste 13 Sudoeste 0 -- -- 76
2018-04-27 03:00:00 11.2 7 Sudeste 14 Sudeste 0 -- -- 72
2018-04-27 02:00:00 11.4 8 Sudeste 14 Sur 0 -- -- 74
2018-04-27 01:00:00 11.6 10 Sur 14 Sur 0 -- -- 78
2018-04-27 00:00:00 12.3 10 Sur 16 Sur 0 -- -- 79
2018-04-26 23:00:00 12.7 12 Sur 17 Sur 0 -- -- 77
2018-04-26 22:00:00 13.7 12 Sur 21 Sur 0 -- -- 73
2018-04-26 21:00:00 14.9 16 Sur 26 Sur 0 -- -- 71
2018-04-26 20:00:00 17.7 17 Sur 28 Sur 0 -- -- 60
2018-04-26 19:00:00 21.5 4 Sudeste 19 Oeste 0 -- -- 39
2018-04-26 18:00:00 21.6 9 Noroeste 22 Noroeste 0 -- -- 33
2018-04-26 17:00:00 20.9 9 Noroeste 22 Norte 0 -- -- 33
2018-04-26 16:00:00 20.4 9 Noroeste 22 Noroeste 0 -- -- 39
2018-04-26 15:00:00 19.7 9 Sudoeste 21 Oeste 0 -- -- 43
2018-04-26 14:00:00 18.9 5 Sudoeste 15 Sudoeste 0 -- -- 43
2018-04-26 13:00:00 17.1 6 Sudoeste 20 Sur 0 -- -- 49
2018-04-26 12:00:00 15.7 8 Sur 20 Sur 0 -- -- 51
2018-04-26 11:00:00 14.1 8 Sur 15 Sur 0 -- -- 59
2018-04-26 10:00:00 11.1 6 Nordeste 12 Norte 0 -- -- 78
2018-04-26 09:00:00 8.4 6 Nordeste 10 Norte 0 -- -- 85
2018-04-26 08:00:00 6.1 6 Norte 14 Norte 0 -- -- 93
2018-04-26 07:00:00 5.8 10 Nordeste 18 Norte 0 -- -- 92
2018-04-26 06:00:00 6.3 4 Norte 13 Nordeste 0 -- -- 92
2018-04-26 05:00:00 6.6 7 Nordeste 16 Norte 0 -- -- 92
2018-04-26 04:00:00 8.1 6 Norte 21 Nordeste 0 -- -- 89
2018-04-26 03:00:00 8.7 9 Norte 18 Nordeste 0 -- -- 89
2018-04-26 02:00:00 8.9 6 Nordeste 24 Norte 0 -- -- 90
2018-04-26 01:00:00 9.4 10 Norte 24 Nordeste 0 -- -- 89
2018-04-26 00:00:00 10.6 4 Nordeste 7 Nordeste 0 -- -- 62
2018-04-25 23:00:00 11.4 0 Calma 8 Noroeste 0 -- -- 59
2018-04-25 22:00:00 12.7 3 Nordeste 13 Este 0 -- -- 55
2018-04-25 21:00:00 14.5 12 Este 31 Este 0 -- -- 49
2018-04-25 20:00:00 16.5 22 Nordeste 35 Este 0 -- -- 46
2018-04-25 19:00:00 17.7 23 Este 33 Este 0 -- -- 42
2018-04-25 18:00:00 19.2 20 Este 29 Nordeste 0 -- -- 39
2018-04-25 17:00:00 18.8 13 Sur 36 Sudeste 0 -- -- 45
2018-04-25 16:00:00 19.2 13 Sudeste 26 Este 0 -- -- 43
2018-04-25 15:00:00 21.1 8 Sur 27 Sur 0 -- -- 35
2018-04-25 14:00:00 20.9 7 Nordeste 28 Este 0 -- -- 31
2018-04-25 13:00:00 20.3 18 Este 41 Nordeste 0 -- -- 32
2018-04-25 12:00:00 19.6 14 Norte 22 Norte 0 -- -- 30
2018-04-25 11:00:00 17.2 10 Norte 15 Norte 0 -- -- 37
2018-04-25 10:00:00 13.4 4 Norte 7 Noroeste 0 -- -- 59
2018-04-25 09:00:00 8.4 4 Este 8 Este 0 -- -- 69
2018-04-25 08:00:00 5.3 4 Nordeste 7 Nordeste 0 -- -- 74
2018-04-25 07:00:00 5 4 Este 7 Este 0 -- -- 76
2018-04-25 06:00:00 5.1 5 Sudoeste 15 Este 0 -- -- 82
2018-04-25 05:00:00 5.2 3 Nordeste 11 Este 0 -- -- 83
2018-04-25 04:00:00 5.6 4 Este 7 Nordeste 0 -- -- 83
2018-04-25 03:00:00 6 5 Oeste 8 Sudeste 0 -- -- 81
2018-04-25 02:00:00 6.8 2 Este 10 Este 0 -- -- 78
2018-04-25 01:00:00 8.1 7 Este 8 Este 0 -- -- 73
2018-04-25 00:00:00 9.8 0 Calma 13 Sur 0 -- -- 68